Wetterstation Vordersexau
Wetterdaten: Mai 2014
Datum Temp. A. Feuchte A. Luftdruck Regen Wind Richtung Taupunkt Windchill Windben
01.05.2014 12,4 C 79 % 982,9 hPa 4,0 l/m 0,5 km/h SO 8,9 C 12,4 C 0,3 km/h
02.05.2014 12,8 C 78 % 983,1 hPa 0,6 l/m 0,2 km/h SO 9,1 C 12,8 C 0,1 km/h
03.05.2014 9,7 C 79 % 990,3 hPa 1,1 l/m 3,7 km/h N-NO 6,3 C 8,9 C 2,3 km/h
04.05.2014 14,0 C 58 % 991,5 hPa 0,0 l/m 1,6 km/h N-NO 4,7 C 13,9 C 0,9 km/h
05.05.2014 14,9 C 60 % 987,3 hPa 0,0 l/m 0,4 km/h O-SO 6,0 C 14,9 C 0,4 km/h
06.05.2014 15,2 C 63 % 984,8 hPa 0,0 l/m 6,1 km/h S 7,6 C 14,3 C 3,8 km/h
07.05.2014 14,4 C 74 % 986,0 hPa 0,9 l/m 10,9 km/h W-SW 9,8 C 12,0 C 6,8 km/h
08.05.2014 15,6 C 69 % 987,9 hPa 0,3 l/m 9,8 km/h W-SW 9,5 C 13,9 C 5,8 km/h
09.05.2014 16,3 C 78 % 987,8 hPa 1,6 l/m 11,6 km/h W-SW 12,2 C 14,1 C 6,9 km/h
10.05.2014 15,8 C 72 % 985,9 hPa 0,0 l/m 8,4 km/h S-SW 10,5 C 14,2 C 5,3 km/h
11.05.2014 13,5 C 70 % 982,3 hPa 1,6 l/m 17,4 km/h SW 8,0 C 9,4 C 10,9 km/h
12.05.2014 10,8 C 75 % 986,0 hPa 0,6 l/m 12,3 km/h SW 6,5 C 7,6 C 7,2 km/h
13.05.2014 10,7 C 78 % 988,5 hPa 3,1 l/m 2,0 km/h S 7,0 C 10,4 C 1,2 km/h
14.05.2014 13,7 C 63 % 997,1 hPa 0,5 l/m 2,9 km/h W 5,9 C 13,2 C 1,6 km/h
15.05.2014 11,5 C 66 % 1000,5 hPa 0,0 l/m 3,5 km/h O 4,8 C 10,9 C 2,0 km/h
16.05.2014 13,8 C 61 % 997,2 hPa 0,0 l/m 2,0 km/h N-NO 5,3 C 13,6 C 1,1 km/h
17.05.2014 14,8 C 61 % 990,7 hPa 0,0 l/m 2,8 km/h N-NO 6,6 C 14,4 C 1,5 km/h
18.05.2014 17,2 C 60 % 984,5 hPa 0,0 l/m 2,4 km/h SO 8,3 C 17,0 C 1,3 km/h
19.05.2014 19,8 C 60 % 979,6 hPa 0,0 l/m 2,1 km/h SO 10,3 C 19,8 C 1,3 km/h
20.05.2014 21,0 C 57 % 982,4 hPa 0,0 l/m 0,1 km/h W 11,2 C 21,0 C 0,0 km/h
21.05.2014 22,4 C 59 % 981,8 hPa 0,0 l/m 2,5 km/h SO 13,2 C 22,3 C 1,4 km/h
22.05.2014 20,2 C 61 % 980,8 hPa 0,0 l/m 3,2 km/h W 11,9 C 19,7 C 1,9 km/h
23.05.2014 18,8 C 64 % 981,8 hPa 2,0 l/m 2,1 km/h W-SW 10,9 C 18,6 C 1,2 km/h
24.05.2014 16,9 C 65 % 986,9 hPa 0,9 l/m 4,5 km/h SO 9,5 C 16,1 C 2,5 km/h
25.05.2014 19,0 C 61 % 988,0 hPa 0,0 l/m 0,6 km/h SO 10,6 C 18,9 C 0,3 km/h
26.05.2014 16,7 C 75 % 985,4 hPa 0,0 l/m 2,5 km/h W 12,1 C 16,3 C 1,6 km/h
27.05.2014 14,2 C 79 % 983,8 hPa 0,0 l/m 1,5 km/h W-SW 10,6 C 14,0 C 1,0 km/h
28.05.2014 15,8 C 70 % 984,0 hPa 0,0 l/m 1,3 km/h O-SO 10,0 C 15,7 C 0,7 km/h
29.05.2014 16,2 C 69 % 985,6 hPa 0,3 l/m 2,2 km/h SO 10,0 C 15,8 C 1,2 km/h
30.05.2014 15,3 C 70 % 989,1 hPa 0,0 l/m 1,1 km/h SO 9,4 C 15,3 C 0,6 km/h
31.05.2014 16,9 C 56 % 990,2 hPa 0,0 l/m 0,5 km/h O-SO 6,5 C 16,9 C 0,3 km/h
Min-Datum 05.05.14 19.05.14 22.05.14 13 Tage 01.05.14 - 05.05.14 11.05.14 01.05.14
Min-Zeit 06:19 16:19 00:19 - 00:19 - 06:19 16:19 00:19
Minimum 1,6 C 26 % 977,1 hPa - 0,0 km/h - -0,6 C -2,2 C 0,0 km/h
Max-Datum 19.05.14 02.05.14 15.05.14 01.05.14 11.05.14 - 21.05.14 19.05.14 11.05.14
Max-Zeit 16:19 23:19 23:19 01:19 06:19 - 17:19 16:19 06:19
Maximum 34,7 C 86 % 1002,1 hPa 4,0 l/m 44,7 km/h
SW
- 18,1 C 34,7 C 24,8 km/h
SW
Durchschnitt 15,5 C 67 % 986,9 hPa #17,5 l/m 4,0 km/h SO 8,8 C 14,8 C 2,4 km/h

Durchschnitt Minimum Temp.8,0 C
Durchschnitt Maximum Temp.24,9 C
www.sexauwetter.de